sensor_id;sensor_type;location;lat;lon;timestamp;temperature;humidity
34877;DHT22;21086;44.780;17.194;2023-05-10T00:00:45;13.20;99.90
34877;DHT22;21086;44.780;17.194;2023-05-10T00:03:12;14.00;99.90
34877;DHT22;21086;44.780;17.194;2023-05-10T00:05:40;13.20;99.90
34877;DHT22;21086;44.780;17.194;2023-05-10T00:08:07;13.20;99.90
34877;DHT22;21086;44.780;17.194;2023-05-10T00:10:34;13.20;99.90
34877;DHT22;21086;44.780;17.194;2023-05-10T00:13:01;13.20;99.90
34877;DHT22;21086;44.780;17.194;2023-05-10T00:15:28;13.20;99.90
34877;DHT22;21086;44.780;17.194;2023-05-10T00:17:57;13.20;99.90
34877;DHT22;21086;44.780;17.194;2023-05-10T00:20:24;13.20;99.90
34877;DHT22;21086;44.780;17.194;2023-05-10T00:22:51;13.20;99.90
34877;DHT22;21086;44.780;17.194;2023-05-10T00:25:18;13.30;99.90
34877;DHT22;21086;44.780;17.194;2023-05-10T00:27:45;13.30;99.90
34877;DHT22;21086;44.780;17.194;2023-05-10T00:30:12;13.20;99.90
34877;DHT22;21086;44.780;17.194;2023-05-10T00:32:40;13.20;99.90
34877;DHT22;21086;44.780;17.194;2023-05-10T00:35:07;13.20;99.90
34877;DHT22;21086;44.780;17.194;2023-05-10T00:37:34;13.20;99.90
34877;DHT22;21086;44.780;17.194;2023-05-10T00:40:01;13.20;99.90
34877;DHT22;21086;44.780;17.194;2023-05-10T00:42:28;13.30;99.90
34877;DHT22;21086;44.780;17.194;2023-05-10T00:44:55;13.30;99.90
34877;DHT22;21086;44.780;17.194;2023-05-10T00:47:23;13.20;99.90
34877;DHT22;21086;44.780;17.194;2023-05-10T00:49:50;13.20;99.90
34877;DHT22;21086;44.780;17.194;2023-05-10T00:52:17;13.20;99.90
34877;DHT22;21086;44.780;17.194;2023-05-10T00:54:44;13.10;99.90
34877;DHT22;21086;44.780;17.194;2023-05-10T00:57:11;13.10;99.90
34877;DHT22;21086;44.780;17.194;2023-05-10T00:59:38;13.00;99.90
34877;DHT22;21086;44.780;17.194;2023-05-10T01:02:06;13.00;99.90
34877;DHT22;21086;44.780;17.194;2023-05-10T01:04:35;13.00;99.90
34877;DHT22;21086;44.780;17.194;2023-05-10T01:07:02;13.00;99.90
34877;DHT22;21086;44.780;17.194;2023-05-10T01:09:29;13.00;99.90
34877;DHT22;21086;44.780;17.194;2023-05-10T01:11:56;13.00;99.90
34877;DHT22;21086;44.780;17.194;2023-05-10T01:14:25;13.00;99.90
34877;DHT22;21086;44.780;17.194;2023-05-10T01:16:52;13.00;99.90
34877;DHT22;21086;44.780;17.194;2023-05-10T01:19:27;12.90;99.90
34877;DHT22;21086;44.780;17.194;2023-05-10T01:34:02;12.70;99.90
34877;DHT22;21086;44.780;17.194;2023-05-10T01:36:51;12.70;99.90
34877;DHT22;21086;44.780;17.194;2023-05-10T01:39:41;12.70;99.90
34877;DHT22;21086;44.780;17.194;2023-05-10T01:42:17;12.70;99.90
34877;DHT22;21086;44.780;17.194;2023-05-10T01:45:27;12.70;99.90
34877;DHT22;21086;44.780;17.194;2023-05-10T01:48:08;12.60;99.90
34877;DHT22;21086;44.780;17.194;2023-05-10T01:50:38;12.70;99.90
34877;DHT22;21086;44.780;17.194;2023-05-10T01:53:08;12.60;99.90
34877;DHT22;21086;44.780;17.194;2023-05-10T01:55:44;12.60;99.90
34877;DHT22;21086;44.780;17.194;2023-05-10T01:58:15;12.60;99.90
34877;DHT22;21086;44.780;17.194;2023-05-10T02:00:44;12.60;99.90
34877;DHT22;21086;44.780;17.194;2023-05-10T02:03:14;12.60;99.90
34877;DHT22;21086;44.780;17.194;2023-05-10T02:05:43;12.60;99.90
34877;DHT22;21086;44.780;17.194;2023-05-10T02:08:11;12.60;99.90
34877;DHT22;21086;44.780;17.194;2023-05-10T02:10:41;12.60;99.90
34877;DHT22;21086;44.780;17.194;2023-05-10T02:13:10;12.60;99.90
34877;DHT22;21086;44.780;17.194;2023-05-10T02:15:40;12.50;99.90
34877;DHT22;21086;44.780;17.194;2023-05-10T02:18:09;12.50;99.90
34877;DHT22;21086;44.780;17.194;2023-05-10T02:20:38;12.50;99.90
34877;DHT22;21086;44.780;17.194;2023-05-10T02:23:06;12.40;99.90
34877;DHT22;21086;44.780;17.194;2023-05-10T02:25:35;12.40;99.90
34877;DHT22;21086;44.780;17.194;2023-05-10T02:28:06;12.30;99.90
34877;DHT22;21086;44.780;17.194;2023-05-10T02:30:34;12.30;99.90
34877;DHT22;21086;44.780;17.194;2023-05-10T02:33:03;12.30;99.90
34877;DHT22;21086;44.780;17.194;2023-05-10T02:35:31;12.40;99.90
34877;DHT22;21086;44.780;17.194;2023-05-10T02:38:00;12.30;99.90
34877;DHT22;21086;44.780;17.194;2023-05-10T02:40:28;12.30;99.90
34877;DHT22;21086;44.780;17.194;2023-05-10T02:42:56;12.30;99.90
34877;DHT22;21086;44.780;17.194;2023-05-10T02:45:29;12.30;99.90
34877;DHT22;21086;44.780;17.194;2023-05-10T02:47:56;12.30;99.90
34877;DHT22;21086;44.780;17.194;2023-05-10T02:50:27;12.30;99.90
34877;DHT22;21086;44.780;17.194;2023-05-10T02:53:00;12.20;99.90
34877;DHT22;21086;44.780;17.194;2023-05-10T02:55:35;12.20;99.90
34877;DHT22;21086;44.780;17.194;2023-05-10T02:58:03;12.20;99.90
34877;DHT22;21086;44.780;17.194;2023-05-10T03:00:31;12.10;99.90
34877;DHT22;21086;44.780;17.194;2023-05-10T03:02:58;12.20;99.90
34877;DHT22;21086;44.780;17.194;2023-05-10T03:05:25;12.10;99.90
34877;DHT22;21086;44.780;17.194;2023-05-10T03:07:52;12.10;99.90
34877;DHT22;21086;44.780;17.194;2023-05-10T03:10:22;12.10;99.90
34877;DHT22;21086;44.780;17.194;2023-05-10T03:16:15;12.10;99.90
34877;DHT22;21086;44.780;17.194;2023-05-10T03:19:06;12.00;99.90
34877;DHT22;21086;44.780;17.194;2023-05-10T03:21:38;12.10;99.90
34877;DHT22;21086;44.780;17.194;2023-05-10T03:24:08;12.10;99.90
34877;DHT22;21086;44.780;17.194;2023-05-10T03:26:38;12.10;99.90
34877;DHT22;21086;44.780;17.194;2023-05-10T03:29:06;12.00;99.90
34877;DHT22;21086;44.780;17.194;2023-05-10T03:31:35;12.00;99.90
34877;DHT22;21086;44.780;17.194;2023-05-10T03:34:01;12.00;99.90
34877;DHT22;21086;44.780;17.194;2023-05-10T03:36:29;12.00;99.90
34877;DHT22;21086;44.780;17.194;2023-05-10T03:38:56;12.00;99.90
34877;DHT22;21086;44.780;17.194;2023-05-10T03:41:23;12.00;99.90
34877;DHT22;21086;44.780;17.194;2023-05-10T03:43:50;11.90;99.90
34877;DHT22;21086;44.780;17.194;2023-05-10T03:46:17;12.00;99.90
34877;DHT22;21086;44.780;17.194;2023-05-10T03:48:44;12.00;99.90
34877;DHT22;21086;44.780;17.194;2023-05-10T03:51:11;12.00;99.90
34877;DHT22;21086;44.780;17.194;2023-05-10T03:53:38;12.00;99.90
34877;DHT22;21086;44.780;17.194;2023-05-10T03:56:05;12.00;99.90
34877;DHT22;21086;44.780;17.194;2023-05-10T03:58:34;11.90;99.90
34877;DHT22;21086;44.780;17.194;2023-05-10T04:01:01;12.00;99.90
34877;DHT22;21086;44.780;17.194;2023-05-10T04:03:29;12.00;99.90
34877;DHT22;21086;44.780;17.194;2023-05-10T04:06:02;12.00;99.90
34877;DHT22;21086;44.780;17.194;2023-05-10T04:08:29;11.90;99.90
34877;DHT22;21086;44.780;17.194;2023-05-10T04:11:06;12.00;99.90
34877;DHT22;21086;44.780;17.194;2023-05-10T04:13:35;12.00;99.90
34877;DHT22;21086;44.780;17.194;2023-05-10T04:16:02;12.10;99.90
34877;DHT22;21086;44.780;17.194;2023-05-10T04:18:29;12.10;99.90
34877;DHT22;21086;44.780;17.194;2023-05-10T04:20:57;12.20;99.90
34877;DHT22;21086;44.780;17.194;2023-05-10T04:23:24;12.20;99.90
34877;DHT22;21086;44.780;17.194;2023-05-10T04:25:51;12.30;99.90
34877;DHT22;21086;44.780;17.194;2023-05-10T04:28:19;12.30;99.90
34877;DHT22;21086;44.780;17.194;2023-05-10T04:30:46;12.40;99.90
34877;DHT22;21086;44.780;17.194;2023-05-10T04:33:13;12.30;99.90
34877;DHT22;21086;44.780;17.194;2023-05-10T04:35:41;12.30;99.90
34877;DHT22;21086;44.780;17.194;2023-05-10T04:38:08;12.40;99.90
34877;DHT22;21086;44.780;17.194;2023-05-10T04:40:35;12.40;99.90
34877;DHT22;21086;44.780;17.194;2023-05-10T04:43:02;12.50;99.90
34877;DHT22;21086;44.780;17.194;2023-05-10T04:45:30;12.60;99.90
34877;DHT22;21086;44.780;17.194;2023-05-10T04:47:57;12.60;99.90
34877;DHT22;21086;44.780;17.194;2023-05-10T04:50:24;12.60;99.90
34877;DHT22;21086;44.780;17.194;2023-05-10T04:52:51;12.60;99.90
34877;DHT22;21086;44.780;17.194;2023-05-10T04:55:19;12.60;99.90
34877;DHT22;21086;44.780;17.194;2023-05-10T04:57:46;12.70;99.90
34877;DHT22;21086;44.780;17.194;2023-05-10T05:00:13;12.70;99.90
34877;DHT22;21086;44.780;17.194;2023-05-10T05:02:44;12.80;99.90
34877;DHT22;21086;44.780;17.194;2023-05-10T05:05:12;12.80;99.90
34877;DHT22;21086;44.780;17.194;2023-05-10T05:07:39;12.90;99.90
34877;DHT22;21086;44.780;17.194;2023-05-10T05:10:07;12.90;99.90
34877;DHT22;21086;44.780;17.194;2023-05-10T05:12:35;13.00;99.90
34877;DHT22;21086;44.780;17.194;2023-05-10T05:15:02;13.20;99.90
34877;DHT22;21086;44.780;17.194;2023-05-10T05:17:32;13.20;99.90
34877;DHT22;21086;44.780;17.194;2023-05-10T05:19:59;13.30;99.90
34877;DHT22;21086;44.780;17.194;2023-05-10T05:22:26;13.40;99.90
34877;DHT22;21086;44.780;17.194;2023-05-10T05:24:55;13.40;99.90
34877;DHT22;21086;44.780;17.194;2023-05-10T05:27:23;13.50;99.90
34877;DHT22;21086;44.780;17.194;2023-05-10T05:29:53;13.50;99.90
34877;DHT22;21086;44.780;17.194;2023-05-10T05:32:20;13.60;99.90
34877;DHT22;21086;44.780;17.194;2023-05-10T05:34:48;13.60;99.90
34877;DHT22;21086;44.780;17.194;2023-05-10T05:37:19;13.70;99.90
34877;DHT22;21086;44.780;17.194;2023-05-10T05:39:48;13.70;99.90
34877;DHT22;21086;44.780;17.194;2023-05-10T05:42:15;13.80;99.90
34877;DHT22;21086;44.780;17.194;2023-05-10T05:44:44;13.90;99.90
34877;DHT22;21086;44.780;17.194;2023-05-10T05:47:11;14.00;99.90
34877;DHT22;21086;44.780;17.194;2023-05-10T05:49:38;14.10;99.90
34877;DHT22;21086;44.780;17.194;2023-05-10T05:52:05;14.10;99.90
34877;DHT22;21086;44.780;17.194;2023-05-10T05:54:32;14.10;99.90
34877;DHT22;21086;44.780;17.194;2023-05-10T05:57:00;14.20;99.90
34877;DHT22;21086;44.780;17.194;2023-05-10T05:59:27;14.20;99.90
34877;DHT22;21086;44.780;17.194;2023-05-10T06:01:54;14.20;99.90
34877;DHT22;21086;44.780;17.194;2023-05-10T06:04:21;14.40;99.90
34877;DHT22;21086;44.780;17.194;2023-05-10T06:06:48;14.50;99.90
34877;DHT22;21086;44.780;17.194;2023-05-10T06:09:16;14.60;99.90
34877;DHT22;21086;44.780;17.194;2023-05-10T06:11:43;14.60;99.90
34877;DHT22;21086;44.780;17.194;2023-05-10T06:14:09;14.70;99.90
34877;DHT22;21086;44.780;17.194;2023-05-10T06:16:36;14.80;99.90
34877;DHT22;21086;44.780;17.194;2023-05-10T06:19:03;14.90;99.90
34877;DHT22;21086;44.780;17.194;2023-05-10T06:21:31;15.00;99.90
34877;DHT22;21086;44.780;17.194;2023-05-10T06:23:58;15.00;99.90
34877;DHT22;21086;44.780;17.194;2023-05-10T06:26:25;15.00;99.90
34877;DHT22;21086;44.780;17.194;2023-05-10T06:28:52;15.00;99.90
34877;DHT22;21086;44.780;17.194;2023-05-10T06:31:19;15.20;99.90
34877;DHT22;21086;44.780;17.194;2023-05-10T06:33:46;15.30;99.90
34877;DHT22;21086;44.780;17.194;2023-05-10T06:36:13;15.40;99.90
34877;DHT22;21086;44.780;17.194;2023-05-10T06:38:40;15.40;99.90
34877;DHT22;21086;44.780;17.194;2023-05-10T06:41:07;15.60;99.90
34877;DHT22;21086;44.780;17.194;2023-05-10T06:43:34;15.70;99.90
34877;DHT22;21086;44.780;17.194;2023-05-10T06:46:01;15.80;99.90
34877;DHT22;21086;44.780;17.194;2023-05-10T06:48:28;15.90;99.90
34877;DHT22;21086;44.780;17.194;2023-05-10T06:50:55;16.00;99.90
34877;DHT22;21086;44.780;17.194;2023-05-10T06:53:22;16.20;99.90
34877;DHT22;21086;44.780;17.194;2023-05-10T06:55:49;16.30;99.90
34877;DHT22;21086;44.780;17.194;2023-05-10T06:58:16;16.40;99.90
34877;DHT22;21086;44.780;17.194;2023-05-10T07:00:43;16.60;99.90
34877;DHT22;21086;44.780;17.194;2023-05-10T07:03:12;16.60;99.90
34877;DHT22;21086;44.780;17.194;2023-05-10T07:05:39;16.70;99.90
34877;DHT22;21086;44.780;17.194;2023-05-10T07:08:06;16.90;99.90
34877;DHT22;21086;44.780;17.194;2023-05-10T07:10:33;17.30;99.90
34877;DHT22;21086;44.780;17.194;2023-05-10T07:13:00;17.70;99.90
34877;DHT22;21086;44.780;17.194;2023-05-10T07:15:28;17.90;99.90
34877;DHT22;21086;44.780;17.194;2023-05-10T07:17:55;18.10;99.90
34877;DHT22;21086;44.780;17.194;2023-05-10T07:20:22;18.10;99.90
34877;DHT22;21086;44.780;17.194;2023-05-10T07:22:49;18.00;99.90
34877;DHT22;21086;44.780;17.194;2023-05-10T07:25:16;18.00;99.90
34877;DHT22;21086;44.780;17.194;2023-05-10T07:27:43;17.90;99.90
34877;DHT22;21086;44.780;17.194;2023-05-10T07:30:11;17.80;99.90
34877;DHT22;21086;44.780;17.194;2023-05-10T07:32:38;17.90;99.90
34877;DHT22;21086;44.780;17.194;2023-05-10T07:35:06;18.10;99.90
34877;DHT22;21086;44.780;17.194;2023-05-10T07:37:33;18.30;99.90
34877;DHT22;21086;44.780;17.194;2023-05-10T07:40:00;18.30;99.90
34877;DHT22;21086;44.780;17.194;2023-05-10T07:42:27;18.30;99.90
34877;DHT22;21086;44.780;17.194;2023-05-10T07:44:54;18.40;99.90
34877;DHT22;21086;44.780;17.194;2023-05-10T07:47:21;18.50;99.90
34877;DHT22;21086;44.780;17.194;2023-05-10T07:49:48;18.70;99.90
34877;DHT22;21086;44.780;17.194;2023-05-10T07:52:15;18.90;99.90
34877;DHT22;21086;44.780;17.194;2023-05-10T07:54:42;19.20;99.90
34877;DHT22;21086;44.780;17.194;2023-05-10T07:57:09;19.50;99.90
34877;DHT22;21086;44.780;17.194;2023-05-10T07:59:36;19.80;99.90
34877;DHT22;21086;44.780;17.194;2023-05-10T08:02:03;19.80;99.90
34877;DHT22;21086;44.780;17.194;2023-05-10T08:04:31;19.70;99.90
34877;DHT22;21086;44.780;17.194;2023-05-10T08:06:58;19.90;99.90
34877;DHT22;21086;44.780;17.194;2023-05-10T08:09:25;19.90;99.90
34877;DHT22;21086;44.780;17.194;2023-05-10T08:11:52;20.10;99.90
34877;DHT22;21086;44.780;17.194;2023-05-10T08:14:19;20.20;99.90
34877;DHT22;21086;44.780;17.194;2023-05-10T08:16:47;20.30;99.90
34877;DHT22;21086;44.780;17.194;2023-05-10T08:19:14;20.40;99.90
34877;DHT22;21086;44.780;17.194;2023-05-10T08:21:45;20.60;99.90
34877;DHT22;21086;44.780;17.194;2023-05-10T08:24:12;20.70;99.90
34877;DHT22;21086;44.780;17.194;2023-05-10T08:26:39;20.90;99.90
34877;DHT22;21086;44.780;17.194;2023-05-10T08:29:07;20.90;99.90
34877;DHT22;21086;44.780;17.194;2023-05-10T08:31:34;20.90;99.90
34877;DHT22;21086;44.780;17.194;2023-05-10T08:34:01;20.80;99.90
34877;DHT22;21086;44.780;17.194;2023-05-10T08:36:27;20.70;99.90
34877;DHT22;21086;44.780;17.194;2023-05-10T08:38:54;20.80;99.90
34877;DHT22;21086;44.780;17.194;2023-05-10T08:41:22;21.00;99.90
34877;DHT22;21086;44.780;17.194;2023-05-10T08:43:52;20.80;99.90
34877;DHT22;21086;44.780;17.194;2023-05-10T08:46:20;20.90;99.90
34877;DHT22;21086;44.780;17.194;2023-05-10T08:48:49;21.10;99.90
34877;DHT22;21086;44.780;17.194;2023-05-10T08:51:19;21.10;99.90
34877;DHT22;21086;44.780;17.194;2023-05-10T08:53:47;21.00;99.90
34877;DHT22;21086;44.780;17.194;2023-05-10T08:56:15;21.10;99.90
34877;DHT22;21086;44.780;17.194;2023-05-10T08:58:42;21.40;99.90
34877;DHT22;21086;44.780;17.194;2023-05-10T09:01:11;21.50;99.90
34877;DHT22;21086;44.780;17.194;2023-05-10T09:03:39;21.70;99.90
34877;DHT22;21086;44.780;17.194;2023-05-10T09:06:06;22.00;99.90
34877;DHT22;21086;44.780;17.194;2023-05-10T09:08:36;21.80;99.90
34877;DHT22;21086;44.780;17.194;2023-05-10T09:11:04;21.70;99.90
34877;DHT22;21086;44.780;17.194;2023-05-10T09:13:32;21.80;99.90
34877;DHT22;21086;44.780;17.194;2023-05-10T09:15:59;21.60;99.90
34877;DHT22;21086;44.780;17.194;2023-05-10T09:18:39;21.80;99.90
34877;DHT22;21086;44.780;17.194;2023-05-10T09:21:06;21.80;99.90
34877;DHT22;21086;44.780;17.194;2023-05-10T09:23:33;21.90;99.90
34877;DHT22;21086;44.780;17.194;2023-05-10T09:26:07;21.80;99.90
34877;DHT22;21086;44.780;17.194;2023-05-10T09:28:53;21.80;99.90
34877;DHT22;21086;44.780;17.194;2023-05-10T09:31:20;21.90;99.90
34877;DHT22;21086;44.780;17.194;2023-05-10T09:33:52;21.90;99.90
34877;DHT22;21086;44.780;17.194;2023-05-10T09:36:20;21.70;99.90
34877;DHT22;21086;44.780;17.194;2023-05-10T09:38:48;21.50;99.90
34877;DHT22;21086;44.780;17.194;2023-05-10T09:41:21;21.50;99.90
34877;DHT22;21086;44.780;17.194;2023-05-10T09:43:49;21.60;99.90
34877;DHT22;21086;44.780;17.194;2023-05-10T09:46:16;21.70;99.90
34877;DHT22;21086;44.780;17.194;2023-05-10T09:48:46;21.70;99.90
34877;DHT22;21086;44.780;17.194;2023-05-10T09:51:24;21.70;99.90
34877;DHT22;21086;44.780;17.194;2023-05-10T09:54:14;21.60;99.90
34877;DHT22;21086;44.780;17.194;2023-05-10T09:56:42;21.50;99.90
34877;DHT22;21086;44.780;17.194;2023-05-10T09:59:11;21.50;99.90
34877;DHT22;21086;44.780;17.194;2023-05-10T10:01:39;21.50;99.90
34877;DHT22;21086;44.780;17.194;2023-05-10T10:04:09;21.40;99.90
34877;DHT22;21086;44.780;17.194;2023-05-10T10:06:37;21.30;99.90
34877;DHT22;21086;44.780;17.194;2023-05-10T10:09:09;21.30;99.90
34877;DHT22;21086;44.780;17.194;2023-05-10T10:11:37;21.40;99.90
34877;DHT22;21086;44.780;17.194;2023-05-10T10:14:05;21.50;99.90
34877;DHT22;21086;44.780;17.194;2023-05-10T10:16:32;21.60;99.90
34877;DHT22;21086;44.780;17.194;2023-05-10T10:19:00;21.70;99.90
34877;DHT22;21086;44.780;17.194;2023-05-10T10:21:28;21.90;99.90
34877;DHT22;21086;44.780;17.194;2023-05-10T10:23:55;22.10;99.90
34877;DHT22;21086;44.780;17.194;2023-05-10T10:26:23;22.00;99.90
34877;DHT22;21086;44.780;17.194;2023-05-10T10:29:00;22.10;99.90
34877;DHT22;21086;44.780;17.194;2023-05-10T10:34:10;21.70;99.90
34877;DHT22;21086;44.780;17.194;2023-05-10T10:36:44;21.40;99.90
34877;DHT22;21086;44.780;17.194;2023-05-10T10:39:12;21.20;99.90
34877;DHT22;21086;44.780;17.194;2023-05-10T10:41:48;20.90;99.90
34877;DHT22;21086;44.780;17.194;2023-05-10T10:50:12;19.80;99.90
34877;DHT22;21086;44.780;17.194;2023-05-10T10:52:40;19.70;99.90
34877;DHT22;21086;44.780;17.194;2023-05-10T10:55:09;19.70;99.90
34877;DHT22;21086;44.780;17.194;2023-05-10T10:57:47;19.70;99.90
34877;DHT22;21086;44.780;17.194;2023-05-10T11:05:43;19.40;99.90
34877;DHT22;21086;44.780;17.194;2023-05-10T11:15:56;19.00;99.90
34877;DHT22;21086;44.780;17.194;2023-05-10T11:18:26;18.90;99.90
34877;DHT22;21086;44.780;17.194;2023-05-10T11:20:58;18.70;99.90
34877;DHT22;21086;44.780;17.194;2023-05-10T11:26:16;18.50;99.90
34877;DHT22;21086;44.780;17.194;2023-05-10T11:28:44;18.50;99.90
34877;DHT22;21086;44.780;17.194;2023-05-10T11:31:16;18.50;99.90
34877;DHT22;21086;44.780;17.194;2023-05-10T11:33:50;18.40;99.90
34877;DHT22;21086;44.780;17.194;2023-05-10T11:36:22;18.30;99.90
34877;DHT22;21086;44.780;17.194;2023-05-10T11:38:50;18.20;99.90
34877;DHT22;21086;44.780;17.194;2023-05-10T11:41:18;18.10;99.90
34877;DHT22;21086;44.780;17.194;2023-05-10T11:43:53;18.10;99.90
34877;DHT22;21086;44.780;17.194;2023-05-10T11:46:25;17.80;99.90
34877;DHT22;21086;44.780;17.194;2023-05-10T11:48:57;17.60;99.90
34877;DHT22;21086;44.780;17.194;2023-05-10T11:51:25;17.40;99.90
34877;DHT22;21086;44.780;17.194;2023-05-10T11:53:56;17.50;99.90
34877;DHT22;21086;44.780;17.194;2023-05-10T11:56:23;17.60;99.90
34877;DHT22;21086;44.780;17.194;2023-05-10T11:58:55;17.60;99.90
34877;DHT22;21086;44.780;17.194;2023-05-10T12:01:24;17.70;99.90
34877;DHT22;21086;44.780;17.194;2023-05-10T12:03:53;17.80;99.90
34877;DHT22;21086;44.780;17.194;2023-05-10T12:06:22;17.80;99.90
34877;DHT22;21086;44.780;17.194;2023-05-10T12:08:49;17.90;99.90
34877;DHT22;21086;44.780;17.194;2023-05-10T12:11:24;17.90;99.90
34877;DHT22;21086;44.780;17.194;2023-05-10T12:13:54;18.00;99.90
34877;DHT22;21086;44.780;17.194;2023-05-10T12:16:24;18.10;99.90
34877;DHT22;21086;44.780;17.194;2023-05-10T12:18:53;18.10;99.90
34877;DHT22;21086;44.780;17.194;2023-05-10T12:21:21;18.10;99.90
34877;DHT22;21086;44.780;17.194;2023-05-10T12:23:53;18.20;99.90
34877;DHT22;21086;44.780;17.194;2023-05-10T12:26:28;18.30;99.90
34877;DHT22;21086;44.780;17.194;2023-05-10T12:29:20;18.40;99.90
34877;DHT22;21086;44.780;17.194;2023-05-10T12:31:55;18.40;99.90
34877;DHT22;21086;44.780;17.194;2023-05-10T12:34:33;18.20;99.90
34877;DHT22;21086;44.780;17.194;2023-05-10T12:37:00;18.20;99.90
34877;DHT22;21086;44.780;17.194;2023-05-10T12:39:44;18.30;99.90
34877;DHT22;21086;44.780;17.194;2023-05-10T12:42:12;18.40;99.90
34877;DHT22;21086;44.780;17.194;2023-05-10T12:44:39;18.40;99.90
34877;DHT22;21086;44.780;17.194;2023-05-10T12:47:06;18.60;99.90
34877;DHT22;21086;44.780;17.194;2023-05-10T12:49:34;18.60;99.90
34877;DHT22;21086;44.780;17.194;2023-05-10T12:52:01;18.90;99.90
34877;DHT22;21086;44.780;17.194;2023-05-10T12:54:28;18.90;99.90
34877;DHT22;21086;44.780;17.194;2023-05-10T12:56:56;18.90;99.90
34877;DHT22;21086;44.780;17.194;2023-05-10T12:59:23;18.90;99.90
34877;DHT22;21086;44.780;17.194;2023-05-10T13:01:51;18.80;99.90
34877;DHT22;21086;44.780;17.194;2023-05-10T13:04:18;18.90;99.90
34877;DHT22;21086;44.780;17.194;2023-05-10T13:06:45;19.00;99.90
34877;DHT22;21086;44.780;17.194;2023-05-10T13:09:12;19.00;99.90
34877;DHT22;21086;44.780;17.194;2023-05-10T13:11:39;19.10;99.90
34877;DHT22;21086;44.780;17.194;2023-05-10T13:14:07;19.10;99.90
34877;DHT22;21086;44.780;17.194;2023-05-10T13:16:33;19.20;99.90
34877;DHT22;21086;44.780;17.194;2023-05-10T13:19:01;19.30;99.90
34877;DHT22;21086;44.780;17.194;2023-05-10T13:21:28;19.30;99.90
34877;DHT22;21086;44.780;17.194;2023-05-10T13:23:55;19.20;99.90
34877;DHT22;21086;44.780;17.194;2023-05-10T13:26:22;19.20;99.90
34877;DHT22;21086;44.780;17.194;2023-05-10T13:28:49;19.20;99.90
34877;DHT22;21086;44.780;17.194;2023-05-10T13:31:18;19.20;99.90
34877;DHT22;21086;44.780;17.194;2023-05-10T13:33:45;19.10;99.90
34877;DHT22;21086;44.780;17.194;2023-05-10T13:36:12;19.10;99.90
34877;DHT22;21086;44.780;17.194;2023-05-10T13:38:39;19.10;99.90
34877;DHT22;21086;44.780;17.194;2023-05-10T13:41:06;19.10;99.90
34877;DHT22;21086;44.780;17.194;2023-05-10T13:43:33;19.10;99.90
34877;DHT22;21086;44.780;17.194;2023-05-10T13:46:01;19.30;99.90
34877;DHT22;21086;44.780;17.194;2023-05-10T13:48:28;19.40;99.90
34877;DHT22;21086;44.780;17.194;2023-05-10T13:50:55;19.50;99.90
34877;DHT22;21086;44.780;17.194;2023-05-10T13:53:22;19.60;99.90
34877;DHT22;21086;44.780;17.194;2023-05-10T13:55:49;19.80;99.90
34877;DHT22;21086;44.780;17.194;2023-05-10T13:58:16;19.70;99.90
34877;DHT22;21086;44.780;17.194;2023-05-10T14:00:43;19.80;99.90
34877;DHT22;21086;44.780;17.194;2023-05-10T14:03:10;19.80;99.90
34877;DHT22;21086;44.780;17.194;2023-05-10T14:05:38;19.90;99.90
34877;DHT22;21086;44.780;17.194;2023-05-10T14:08:05;20.10;99.90
34877;DHT22;21086;44.780;17.194;2023-05-10T14:10:32;20.30;99.90
34877;DHT22;21086;44.780;17.194;2023-05-10T14:12:59;20.40;99.90
34877;DHT22;21086;44.780;17.194;2023-05-10T14:15:26;20.50;99.90
34877;DHT22;21086;44.780;17.194;2023-05-10T14:17:53;20.50;99.90
34877;DHT22;21086;44.780;17.194;2023-05-10T14:20:20;20.80;99.90
34877;DHT22;21086;44.780;17.194;2023-05-10T14:22:47;21.00;99.90
34877;DHT22;21086;44.780;17.194;2023-05-10T14:25:14;21.30;99.90
34877;DHT22;21086;44.780;17.194;2023-05-10T14:27:42;21.50;99.90
34877;DHT22;21086;44.780;17.194;2023-05-10T14:30:10;21.40;99.90
34877;DHT22;21086;44.780;17.194;2023-05-10T14:32:37;21.20;99.90
34877;DHT22;21086;44.780;17.194;2023-05-10T14:35:05;21.10;99.90
34877;DHT22;21086;44.780;17.194;2023-05-10T14:37:32;20.90;99.90
34877;DHT22;21086;44.780;17.194;2023-05-10T14:40:00;20.90;99.90
34877;DHT22;21086;44.780;17.194;2023-05-10T14:42:27;21.00;99.90
34877;DHT22;21086;44.780;17.194;2023-05-10T14:44:55;21.30;99.90
34877;DHT22;21086;44.780;17.194;2023-05-10T14:47:22;21.30;99.90
34877;DHT22;21086;44.780;17.194;2023-05-10T14:49:49;20.90;99.90
34877;DHT22;21086;44.780;17.194;2023-05-10T14:52:17;20.60;99.90
34877;DHT22;21086;44.780;17.194;2023-05-10T14:54:44;20.70;99.90
34877;DHT22;21086;44.780;17.194;2023-05-10T14:57:11;20.80;99.90
34877;DHT22;21086;44.780;17.194;2023-05-10T14:59:38;20.70;99.90
34877;DHT22;21086;44.780;17.194;2023-05-10T15:02:07;20.60;99.90
34877;DHT22;21086;44.780;17.194;2023-05-10T15:04:35;20.50;99.90
34877;DHT22;21086;44.780;17.194;2023-05-10T15:07:02;20.60;99.90
34877;DHT22;21086;44.780;17.194;2023-05-10T15:09:29;20.30;99.90
34877;DHT22;21086;44.780;17.194;2023-05-10T15:11:56;20.10;99.90
34877;DHT22;21086;44.780;17.194;2023-05-10T15:14:23;19.90;99.90
34877;DHT22;21086;44.780;17.194;2023-05-10T15:16:51;19.80;99.90
34877;DHT22;21086;44.780;17.194;2023-05-10T15:19:19;19.80;99.90
34877;DHT22;21086;44.780;17.194;2023-05-10T15:21:46;19.70;99.90
34877;DHT22;21086;44.780;17.194;2023-05-10T15:24:13;19.70;99.90
34877;DHT22;21086;44.780;17.194;2023-05-10T15:26:41;19.60;99.90
34877;DHT22;21086;44.780;17.194;2023-05-10T15:29:08;19.60;99.90
34877;DHT22;21086;44.780;17.194;2023-05-10T15:31:36;19.60;99.90
34877;DHT22;21086;44.780;17.194;2023-05-10T15:34:03;19.70;99.90
34877;DHT22;21086;44.780;17.194;2023-05-10T15:36:31;19.60;99.90
34877;DHT22;21086;44.780;17.194;2023-05-10T15:38:59;19.50;99.90
34877;DHT22;21086;44.780;17.194;2023-05-10T15:41:26;19.50;99.90
34877;DHT22;21086;44.780;17.194;2023-05-10T15:43:53;19.40;99.90
34877;DHT22;21086;44.780;17.194;2023-05-10T15:46:20;19.40;99.90
34877;DHT22;21086;44.780;17.194;2023-05-10T15:48:48;19.30;99.90
34877;DHT22;21086;44.780;17.194;2023-05-10T15:51:15;19.30;99.90
34877;DHT22;21086;44.780;17.194;2023-05-10T15:53:42;19.20;99.90
34877;DHT22;21086;44.780;17.194;2023-05-10T15:56:22;19.20;99.90
34877;DHT22;21086;44.780;17.194;2023-05-10T15:58:49;19.20;99.90
34877;DHT22;21086;44.780;17.194;2023-05-10T16:01:17;19.30;99.90
34877;DHT22;21086;44.780;17.194;2023-05-10T16:03:44;19.20;99.90